Hoe ontstaat hagel?

StormCell - Onweer anders bekeken

Welkom op Stormcell.be, dé website waar onweer al sinds 2011 anders wordt bekeken.

Op onze site vindt de bezoeker duidelijke weermodellen, data van het StormCell weerstation in regio Ninove (België) én kan men het onweer live volgen via lightningmaps.org.

We beschikken over een Facebook pagina waar weer gerelateerde berichten worden gedeeld en waar we zelf ook waarschuwingen voor onweer of noodweer uitsturen indien nodig.

U leest het goed: indien nodig, dus geen onheilspellende berichten als de storm of het onweer slechts in een glas water zal woeden. We zijn niet uit op sensatie of het zaaien van angst. We bekijken het onweer met klare kijk op de feiten. 

[Source: ADDS]
METAR
EBBR 221450Z 07003KT 040V100 9999 BKN018 11/08 Q1037 NOSIG =
EBBR 221110Z 2212/2318 10003KT 4000 BR FEW005 BKN020 BECMG 2216/2218 6000 NSW PROB30 TEMPO 2306/2308 4500 BR MIFG
TAF
EBBR 221110Z 2212/2318 10003KT 4000 BR FEW005 BKN020 BECMG 2216/2218 6000 NSW PROB30 TEMPO 2306/2308 4500 BR MIFG =

Visweer Vlissingen

StormCell is een non profit organisatie zonder oogmerk tot sensatie